createdAt,value
2023-05-11T03:06:02.046Z,72.40
2023-05-11T03:08:44.223Z,72.24
2023-05-11T03:11:21.697Z,71.89
2023-05-11T03:14:03.148Z,72.46
2023-05-11T03:18:09.488Z,72.02
2023-05-11T03:27:57.419Z,71.93
2023-05-11T03:31:04.410Z,72.04
2023-05-11T03:34:51.371Z,72.34
2023-05-11T03:37:42.749Z,71.77
2023-05-11T03:40:38.443Z,72.19
2023-05-11T03:43:46.650Z,71.84
2023-05-11T03:46:55.897Z,71.22
2023-05-11T03:54:31.087Z,71.90
2023-05-11T03:57:18.858Z,71.34
2023-05-11T04:00:08.323Z,72.12
2023-05-11T04:02:44.700Z,72.28
2023-05-11T04:08:58.082Z,71.40
2023-05-11T04:16:13.300Z,70.57
2023-05-11T04:23:16.889Z,70.67
2023-05-11T04:30:08.836Z,70.31
2023-05-11T04:36:54.194Z,70.95
2023-05-11T04:44:04.519Z,71.06
2023-05-11T04:46:31.675Z,71.80
2023-05-11T04:48:59.143Z,71.83
2023-05-11T04:51:27.024Z,71.71
2023-05-11T04:53:53.716Z,71.82
2023-05-11T05:00:04.132Z,70.97
2023-05-11T05:02:55.251Z,70.54
2023-05-11T05:08:50.828Z,70.41
2023-05-11T05:12:26.672Z,71.11
2023-05-11T05:15:34.136Z,71.17
2023-05-11T05:26:18.215Z,70.35
2023-05-11T05:29:22.434Z,70.39
2023-05-11T05:32:47.398Z,70.40
2023-05-11T05:35:31.200Z,70.60
2023-05-11T05:38:58.869Z,70.67
2023-05-11T05:42:09.181Z,71.01
2023-05-11T05:48:07.176Z,70.46
2023-05-11T05:57:23.159Z,72.45
2023-05-11T06:00:18.574Z,72.74
2023-05-11T06:03:09.280Z,71.91
2023-05-11T06:06:53.917Z,71.97
2023-05-11T06:09:39.130Z,72.21
2023-05-11T06:12:10.160Z,71.93
2023-05-11T06:15:04.946Z,71.50
2023-05-11T06:17:37.510Z,71.83
2023-05-11T06:20:06.210Z,69.80
2023-05-11T06:22:40.793Z,71.64
2023-05-11T06:25:21.179Z,70.29
2023-05-11T06:27:56.063Z,71.22
2023-05-11T06:30:31.436Z,71.01
2023-05-11T06:33:00.734Z,71.81
2023-05-11T06:35:29.616Z,70.20
2023-05-11T06:37:57.134Z,69.86
2023-05-11T06:40:26.317Z,69.61
2023-05-11T06:42:53.179Z,70.99
2023-05-11T06:45:20.035Z,70.90
2023-05-11T06:47:50.042Z,70.15
2023-05-11T06:50:24.494Z,71.59
2023-05-11T06:52:52.678Z,70.71
2023-05-11T06:55:19.488Z,70.63
2023-05-11T06:57:47.531Z,71.05
2023-05-11T07:00:14.734Z,71.08
2023-05-11T07:03:03.968Z,69.68
2023-05-11T07:05:31.375Z,70.16
2023-05-11T07:08:00.300Z,71.45
2023-05-11T07:10:27.031Z,71.20
2023-05-11T07:12:53.785Z,72.62
2023-05-11T07:15:20.752Z,70.46
2023-05-11T07:17:47.903Z,70.26
2023-05-11T07:20:15.012Z,69.20
2023-05-11T07:22:43.964Z,69.49
2023-05-11T07:25:13.378Z,70.51
2023-05-11T07:27:40.215Z,69.00
2023-05-11T07:30:07.424Z,70.06
2023-05-11T07:32:34.747Z,71.41
2023-05-11T07:35:07.219Z,70.82
2023-05-11T07:41:30.331Z,70.13
2023-05-11T07:44:22.275Z,70.06
2023-05-11T07:47:03.948Z,69.92
2023-05-11T07:50:12.315Z,70.90
2023-05-11T07:53:26.737Z,70.33
2023-05-11T07:56:17.258Z,72.25
2023-05-11T07:58:54.108Z,71.86
2023-05-11T08:02:07.273Z,71.03
2023-05-11T08:05:03.152Z,71.07
2023-05-11T08:08:00.963Z,70.33
2023-05-11T08:10:52.586Z,70.87
2023-05-11T08:13:23.345Z,70.84
2023-05-11T08:17:12.811Z,70.23
2023-05-11T08:20:22.680Z,70.55
2023-05-11T09:37:16.432Z,71.12
2023-05-11T09:40:04.660Z,70.36
2023-05-11T09:42:29.873Z,70.15
2023-05-11T09:44:56.701Z,69.38
2023-05-11T09:47:23.285Z,70.42
2023-05-11T09:49:49.973Z,70.22
2023-05-11T09:52:18.563Z,70.03
2023-05-11T09:54:47.782Z,70.93
2023-05-11T09:57:28.790Z,70.90
2023-05-11T09:59:57.241Z,71.20
2023-05-11T10:02:30.776Z,71.02
2023-05-11T10:05:10.562Z,72.32
2023-05-11T10:07:37.837Z,72.76
2023-05-11T10:10:09.185Z,71.42
2023-05-11T10:12:38.435Z,70.23
2023-05-11T10:15:09.969Z,70.63
2023-05-11T10:17:37.343Z,71.76
2023-05-11T10:20:05.971Z,70.94
2023-05-11T10:22:32.979Z,71.58
2023-05-11T10:25:00.283Z,71.30
2023-05-11T10:27:28.709Z,71.12
2023-05-11T10:29:58.132Z,70.18
2023-05-11T10:32:25.316Z,70.30
2023-05-11T10:34:51.879Z,71.82
2023-05-11T10:37:18.492Z,71.75
2023-05-11T10:39:48.391Z,70.54
2023-05-11T10:42:30.906Z,70.51
2023-05-11T10:45:15.637Z,71.00
2023-05-11T10:48:00.007Z,71.46
2023-05-11T10:50:56.696Z,70.18
2023-05-11T10:53:51.328Z,70.80
2023-05-11T10:56:49.533Z,71.71
2023-05-11T10:59:49.174Z,71.18
2023-05-11T11:02:17.824Z,72.19
2023-05-11T11:04:49.497Z,72.06
2023-05-11T11:07:18.606Z,71.42
2023-05-11T11:09:57.712Z,70.92
2023-05-11T11:12:27.318Z,71.73
2023-05-11T11:14:58.963Z,71.30
2023-05-11T11:17:38.387Z,70.69
2023-05-11T11:20:10.022Z,70.97
2023-05-11T11:22:38.233Z,71.57
2023-05-11T11:25:07.960Z,71.14
2023-05-11T11:27:40.724Z,72.14
2023-05-11T11:30:28.475Z,70.92
2023-05-11T11:33:16.543Z,71.59
2023-05-11T11:35:45.884Z,70.85
2023-05-11T11:38:13.694Z,70.51
2023-05-11T11:40:50.660Z,71.37
2023-05-11T11:43:19.718Z,72.27
2023-05-11T11:46:02.551Z,72.26
2023-05-11T11:48:38.106Z,71.74
2023-05-11T11:51:05.978Z,72.19
2023-05-11T11:53:39.518Z,73.25
2023-05-11T11:56:15.395Z,73.86
2023-05-11T11:58:42.426Z,73.35
2023-05-11T12:01:14.153Z,72.52
2023-05-11T12:03:43.326Z,71.84
2023-05-11T12:06:11.344Z,72.49
2023-05-11T12:08:39.413Z,72.39
2023-05-11T12:11:07.408Z,72.56
2023-05-11T12:13:35.316Z,72.28
2023-05-11T12:16:16.442Z,71.67
2023-05-11T12:18:52.553Z,73.86
2023-05-11T12:21:24.034Z,73.39
2023-05-11T12:23:57.442Z,74.13
2023-05-11T12:26:26.496Z,73.63
2023-05-11T12:29:07.632Z,74.07
2023-05-11T12:31:37.965Z,73.73
2023-05-11T12:34:04.696Z,73.47
2023-05-11T12:36:33.041Z,73.68
2023-05-11T12:38:59.758Z,72.77
2023-05-11T12:41:27.258Z,72.95
2023-05-11T12:43:54.620Z,72.58
2023-05-11T12:46:22.499Z,73.44
2023-05-11T12:48:50.539Z,74.02
2023-05-11T12:51:44.761Z,73.30
2023-05-11T12:54:11.492Z,73.00
2023-05-11T12:56:48.220Z,73.05
2023-05-11T12:59:25.375Z,73.76
2023-05-11T13:01:52.115Z,74.26
2023-05-11T13:04:18.790Z,74.94
2023-05-11T13:06:45.614Z,75.34
2023-05-11T13:09:21.111Z,76.65
2023-05-11T13:11:47.646Z,76.86
2023-05-11T13:14:17.578Z,76.30
2023-05-11T13:16:53.920Z,76.19
2023-05-11T13:19:31.189Z,75.46
2023-05-11T13:21:58.468Z,75.36
2023-05-11T13:24:26.027Z,75.23
2023-05-11T13:26:53.970Z,74.42
2023-05-11T13:29:20.781Z,74.44
2023-05-11T13:31:48.760Z,73.89
2023-05-11T13:34:15.874Z,74.57
2023-05-11T13:36:42.817Z,74.30
2023-05-11T13:39:10.612Z,72.83
2023-05-11T13:41:37.234Z,72.85
2023-05-11T13:44:05.000Z,72.10
2023-05-11T13:46:31.608Z,72.87
2023-05-11T13:49:00.289Z,73.74
2023-05-11T13:51:27.551Z,74.56
2023-05-11T13:53:54.375Z,74.85
2023-05-11T13:56:22.013Z,75.17
2023-05-11T13:58:48.683Z,74.32
2023-05-11T14:01:15.294Z,73.68
2023-05-11T14:03:41.984Z,73.66
2023-05-11T14:06:08.656Z,74.40
2023-05-11T14:08:35.217Z,74.50
2023-05-11T14:11:01.761Z,73.34
2023-05-11T14:13:28.291Z,73.95
2023-05-11T14:15:54.918Z,73.00
2023-05-11T14:18:21.644Z,73.14
2023-05-11T14:20:48.218Z,74.01
2023-05-11T14:23:14.768Z,74.85
2023-05-11T14:25:41.383Z,73.56
2023-05-11T14:28:07.951Z,74.17
2023-05-11T14:30:34.530Z,73.94
2023-05-11T14:33:01.144Z,73.60
2023-05-11T14:35:27.723Z,73.23
2023-05-11T14:37:54.663Z,72.07
2023-05-11T14:40:41.618Z,72.98
2023-05-11T14:43:08.231Z,73.08
2023-05-11T14:45:34.840Z,72.18
2023-05-11T14:48:01.547Z,72.87
2023-05-11T14:50:28.516Z,73.79
2023-05-11T14:52:55.110Z,71.93
2023-05-11T14:55:21.800Z,72.29
2023-05-11T14:57:48.367Z,73.82
2023-05-11T15:00:35.630Z,73.42
2023-05-11T15:03:02.237Z,73.36
2023-05-11T15:05:28.916Z,72.04
2023-05-11T15:07:56.259Z,73.44
2023-05-11T15:10:23.530Z,72.98
2023-05-11T15:12:50.046Z,72.83
2023-05-11T15:15:16.990Z,72.55
2023-05-11T15:17:43.746Z,73.43
2023-05-11T15:20:10.660Z,73.27
2023-05-11T15:22:37.224Z,73.65
2023-05-11T15:25:04.234Z,73.78
2023-05-11T15:27:31.533Z,73.79
2023-05-11T15:29:58.029Z,74.14
2023-05-11T15:32:24.578Z,73.28
2023-05-11T15:34:59.130Z,73.60
2023-05-11T15:37:26.839Z,73.38
2023-05-11T15:39:53.349Z,73.54
2023-05-11T15:42:19.878Z,74.44
2023-05-11T15:44:46.408Z,74.99
2023-05-11T15:47:13.152Z,74.81
2023-05-11T15:49:39.683Z,74.31
2023-05-11T15:52:07.334Z,73.55
2023-05-11T15:54:35.847Z,73.59
2023-05-11T15:57:02.830Z,74.19
2023-05-11T15:59:29.629Z,73.86
2023-05-11T16:01:56.099Z,74.11
2023-05-11T16:04:22.674Z,74.13
2023-05-11T16:06:49.212Z,73.84
2023-05-11T16:09:16.583Z,74.63
2023-05-11T16:11:43.574Z,75.72
2023-05-11T16:14:10.085Z,75.60
2023-05-11T16:16:37.066Z,74.79
2023-05-11T16:19:04.191Z,75.23
2023-05-11T16:21:30.784Z,75.27
2023-05-11T16:23:59.575Z,75.49
2023-05-11T16:26:27.862Z,74.75
2023-05-11T16:28:54.371Z,75.56
2023-05-11T16:31:20.993Z,73.59
2023-05-11T16:33:47.681Z,73.85
2023-05-11T16:36:14.360Z,72.66
2023-05-11T16:38:41.166Z,72.56
2023-05-11T16:41:07.707Z,74.08
2023-05-11T16:43:34.401Z,73.10
2023-05-11T16:46:01.426Z,73.79
2023-05-11T16:48:28.322Z,72.91
2023-05-11T16:50:55.619Z,72.13
2023-05-11T16:53:27.129Z,72.81
2023-05-11T16:55:55.275Z,73.45
2023-05-11T16:58:23.266Z,72.95
2023-05-11T17:00:50.600Z,72.37
2023-05-11T17:03:20.261Z,72.94
2023-05-11T17:06:05.606Z,75.45
2023-05-11T17:08:52.969Z,76.17
2023-05-11T17:11:39.868Z,76.22
2023-05-11T17:14:26.747Z,76.04
2023-05-11T17:17:13.661Z,73.97
2023-05-11T17:20:01.226Z,72.39
2023-05-11T17:22:48.110Z,73.58
2023-05-11T17:25:34.934Z,72.41
2023-05-11T17:28:22.175Z,72.73
2023-05-11T17:31:13.838Z,71.82
2023-05-11T17:34:01.350Z,72.05
2023-05-11T17:36:48.407Z,71.61
2023-05-11T17:39:35.381Z,71.94
2023-05-11T17:42:22.200Z,71.72
2023-05-11T17:45:09.731Z,72.63
2023-05-11T17:47:56.620Z,72.15
2023-05-11T17:50:44.229Z,72.45
2023-05-11T17:53:31.580Z,72.54
2023-05-11T17:56:19.154Z,72.29
2023-05-11T17:59:05.989Z,72.46
2023-05-11T18:01:53.077Z,72.74
2023-05-11T18:04:41.988Z,71.63
2023-05-11T18:07:28.807Z,71.66
2023-05-11T18:10:15.697Z,71.43
2023-05-11T18:13:03.661Z,71.80
2023-05-11T18:15:50.753Z,71.90
2023-05-11T18:18:37.772Z,72.38
2023-05-11T18:21:26.694Z,71.64
2023-05-11T18:24:15.110Z,71.26
2023-05-11T18:27:02.181Z,71.20
2023-05-11T18:29:48.989Z,71.60
2023-05-11T18:32:35.906Z,71.60
2023-05-11T18:35:22.873Z,71.58
2023-05-11T18:38:09.752Z,71.88
2023-05-11T18:40:56.713Z,71.56
2023-05-11T18:43:48.259Z,70.88
2023-05-11T18:46:35.346Z,71.34
2023-05-11T18:49:22.468Z,71.83
2023-05-11T18:52:09.347Z,72.06
2023-05-11T18:54:56.726Z,71.10
2023-05-11T18:57:43.692Z,71.97
2023-05-11T19:00:36.744Z,72.26
2023-05-11T19:03:23.737Z,72.31
2023-05-11T19:06:11.827Z,72.23
2023-05-11T19:08:58.670Z,73.32
2023-05-11T19:11:45.511Z,72.92
2023-05-11T19:14:34.742Z,72.62
2023-05-11T19:17:22.800Z,72.51
2023-05-11T19:20:10.524Z,72.97
2023-05-11T19:22:58.604Z,73.26
2023-05-11T19:25:45.477Z,72.69
2023-05-11T19:28:32.415Z,72.98
2023-05-11T19:31:19.508Z,73.93
2023-05-11T19:34:06.850Z,74.58
2023-05-11T19:36:53.754Z,72.93
2023-05-11T19:39:40.580Z,72.60
